Van Buren, Missouri
Current Conditions -  °F | °C
As of 1:01 AM on Monday 24 Nov 2014 (Local Time) from KPOF Reporting Station
Thunderstorm Thunderstorm  
Wind Chill: 60°   Ceiling: 1200
Heat Index: 60°   Visibility: 6mi
Dew Point: 54°   Wind: 24mph
Humidity: 80%   Direction: 210°SSW
Pressure: 29.28"   Gusts: 40mph
Location:  37°N, 91.01°W
Report Text: KPOF 240701Z AUTO 21021G35KT 6SM -TSRA BKN012 OVC070 16/12 A2928 RMK AO2 PK WND 20035/0657 LTG DSNT SW TSB0655 P0001 T01560122
Loading
Personal Weather Stations






























Interactive Weather Map New forecast layout! Learn more

10-Day Weather Forecast

Advertisements
Track Severe Weather on mobile